Time;durP1;ratioP1;P1;durP2;ratioP2;P2;SDS_P1;SDS_P2;PMS_P1;PMS_P2;Temp;Humidity;BMP_temperature;BMP_pressure;BME280_temperature;BME280_humidity;BME280_pressure;Samples;Min_cycle;Max_cycle;Signal;HPM_P1;HPM_P2
2023/03/09 00:01:21;;;;;;;0.75;0.63;;;18.00;49.80;;;;;;6295126;28;20094;-70
2023/03/09 00:04:22;;;;;;;0.90;0.73;;;18.00;49.80;;;;;;6277196;28;20020;-69
2023/03/09 00:07:23;;;;;;;1.05;0.70;;;18.00;49.80;;;;;;6294877;28;20020;-69
2023/03/09 00:10:24;;;;;;;0.70;0.70;;;18.00;49.80;;;;;;6295140;28;20016;-69
2023/03/09 00:13:25;;;;;;;1.13;0.70;;;18.00;49.80;;;;;;6295193;28;20371;-69
2023/03/09 00:16:28;;;;;;;1.00;0.80;;;18.00;49.80;;;;;;6294875;28;20028;-69
2023/03/09 00:19:30;;;;;;;1.27;0.65;;;18.00;49.80;;;;;;6277135;28;20017;-69
2023/03/09 00:22:30;;;;;;;0.70;0.60;;;18.00;49.80;;;;;;6294621;28;20389;-69
2023/03/09 00:25:33;;;;;;;0.70;0.60;;;18.00;49.80;;;;;;6294536;28;20021;-69
2023/03/09 00:28:34;;;;;;;0.75;0.65;;;18.00;49.80;;;;;;6294723;28;20029;-69
2023/03/09 00:31:35;;;;;;;0.85;0.60;;;18.00;49.80;;;;;;6276448;28;20032;-69
2023/03/09 00:34:36;;;;;;;0.60;0.60;;;18.00;49.80;;;;;;6294725;28;20020;-69
2023/03/09 00:37:37;;;;;;;0.50;0.50;;;18.00;49.80;;;;;;6276438;28;20036;-69
2023/03/09 00:40:40;;;;;;;1.27;0.65;;;18.00;49.80;;;;;;6276631;28;20397;-69
2023/03/09 00:43:40;;;;;;;0.90;0.73;;;18.00;49.80;;;;;;6276498;28;20056;-69
2023/03/09 00:46:41;;;;;;;0.98;0.77;;;18.00;49.80;;;;;;6293823;28;20385;-69
2023/03/09 00:49:42;;;;;;;0.88;0.70;;;18.00;49.70;;;;;;6294307;28;20024;-69
2023/03/09 00:52:44;;;;;;;1.10;0.90;;;18.00;49.80;;;;;;6294572;28;20036;-69
2023/03/09 00:55:45;;;;;;;0.95;0.63;;;18.00;49.80;;;;;;6276405;28;20025;-68
2023/03/09 00:58:46;;;;;;;0.75;0.70;;;18.00;49.80;;;;;;6276435;28;20020;-69
2023/03/09 01:01:47;;;;;;;0.70;0.63;;;18.00;49.80;;;;;;6293798;28;20506;-69
2023/03/09 01:04:49;;;;;;;0.80;0.70;;;18.00;49.80;;;;;;6294379;28;20025;-69
2023/03/09 01:07:50;;;;;;;1.00;0.70;;;18.00;49.80;;;;;;6294284;28;20025;-69
2023/03/09 01:10:51;;;;;;;0.80;0.60;;;18.00;49.70;;;;;;6276081;28;20029;-69
2023/03/09 01:13:52;;;;;;;0.68;0.60;;;18.00;49.80;;;;;;6294222;28;20480;-69
2023/03/09 01:16:53;;;;;;;0.65;0.60;;;18.00;49.70;;;;;;6276195;28;20052;-69
2023/03/09 01:19:54;;;;;;;0.98;0.80;;;18.00;49.80;;;;;;6293843;28;20031;-69
2023/03/09 01:22:56;;;;;;;0.93;0.70;;;18.00;49.80;;;;;;6293700;28;20072;-69
2023/03/09 01:25:57;;;;;;;0.75;0.68;;;18.00;49.70;;;;;;6294109;28;20028;-69
2023/03/09 01:28:58;;;;;;;1.42;0.80;;;18.00;49.70;;;;;;6294009;28;20043;-69
2023/03/09 01:31:59;;;;;;;0.95;0.80;;;18.00;49.70;;;;;;6293925;28;20024;-69
2023/03/09 01:35:00;;;;;;;0.70;0.55;;;18.00;49.70;;;;;;6294085;28;20066;-69
2023/03/09 01:38:01;;;;;;;1.00;0.63;;;18.00;49.70;;;;;;6293533;28;20104;-69
2023/03/09 01:41:02;;;;;;;0.70;0.55;;;18.00;49.70;;;;;;6293439;28;20035;-69
2023/03/09 01:44:03;;;;;;;1.40;0.90;;;18.00;49.70;;;;;;6292297;28;20032;-69
2023/03/09 01:47:05;;;;;;;1.27;0.90;;;18.00;49.70;;;;;;6293894;28;20071;-69
2023/03/09 01:50:06;;;;;;;0.80;0.70;;;18.00;49.80;;;;;;6293673;28;20578;-69
2023/03/09 01:53:17;;;;;;;1.20;0.70;;;18.00;49.70;;;;;;6293752;28;20431;-69
2023/03/09 01:56:19;;;;;;;1.08;0.70;;;18.00;49.70;;;;;;6293950;28;20056;-69
2023/03/09 01:59:25;;;;;;;0.90;0.85;;;18.00;49.70;;;;;;6297325;28;20021;-69
2023/03/09 02:02:29;;;;;;;0.73;0.73;;;18.00;49.60;;;;;;6298330;28;20016;-69
2023/03/09 02:05:40;;;;;;;1.23;0.83;;;18.00;49.70;;;;;;6280415;28;20465;-69
2023/03/09 02:09:04;;;;;;;1.58;1.00;;;18.00;49.70;;;;;;6297714;28;20024;-69
2023/03/09 02:12:07;;;;;;;1.17;0.90;;;18.00;49.90;;;;;;6279891;28;20089;-69
2023/03/09 02:15:09;;;;;;;1.15;0.90;;;18.00;49.70;;;;;;6297953;28;20025;-68
2023/03/09 02:18:11;;;;;;;0.70;0.70;;;18.00;49.70;;;;;;6279827;28;20055;-69
2023/03/09 02:21:33;;;;;;;1.00;0.90;;;18.00;49.70;;;;;;6297599;28;20508;-69
2023/03/09 02:24:51;;;;;;;0.88;0.82;;;18.00;49.70;;;;;;6297470;28;20036;-69
2023/03/09 02:27:53;;;;;;;1.25;0.95;;;18.00;49.70;;;;;;6297629;28;20013;-69
2023/03/09 02:30:54;;;;;;;0.90;0.70;;;18.00;49.70;;;;;;6297686;28;20103;-69
2023/03/09 02:33:56;;;;;;;1.20;0.82;;;18.00;49.70;;;;;;6279621;28;20032;-69
2023/03/09 02:36:57;;;;;;;0.50;0.50;;;18.00;49.70;;;;;;6279587;28;20078;-69
2023/03/09 02:40:04;;;;;;;1.00;0.90;;;18.00;49.70;;;;;;6296994;28;20025;-69
2023/03/09 02:43:06;;;;;;;0.95;0.70;;;18.00;49.70;;;;;;6279355;28;20021;-69
2023/03/09 02:46:07;;;;;;;1.33;0.90;;;18.00;49.70;;;;;;6297301;28;20052;-69
2023/03/09 02:49:08;;;;;;;1.92;0.90;;;18.00;49.60;;;;;;6297451;28;20073;-69
2023/03/09 02:52:09;;;;;;;0.90;0.88;;;18.00;49.70;;;;;;6297008;28;20505;-69
2023/03/09 02:55:10;;;;;;;0.68;0.68;;;18.00;49.60;;;;;;6297147;28;20017;-69
2023/03/09 02:58:13;;;;;;;1.38;0.98;;;18.00;49.60;;;;;;6296717;28;20051;-69
2023/03/09 03:01:13;;;;;;;0.90;0.77;;;18.00;49.60;;;;;;6278726;28;20055;-69
2023/03/09 03:04:16;;;;;;;2.25;1.00;;;18.00;49.60;;;;;;6278718;28;20024;-69
2023/03/09 03:07:17;;;;;;;1.38;0.80;;;18.00;49.60;;;;;;6296991;28;20556;-68
2023/03/09 03:10:20;;;;;;;1.15;0.93;;;18.00;49.60;;;;;;6295997;28;20074;-69
2023/03/09 03:13:21;;;;;;;1.35;1.08;;;18.00;49.60;;;;;;6296656;28;20107;-69
2023/03/09 03:16:22;;;;;;;0.95;0.80;;;18.00;49.60;;;;;;6296347;28;20124;-69
2023/03/09 03:19:23;;;;;;;1.10;0.77;;;18.00;49.60;;;;;;6296291;28;20028;-68
2023/03/09 03:22:25;;;;;;;1.42;1.10;;;18.00;49.60;;;;;;6296117;28;20047;-69
2023/03/09 03:25:25;;;;;;;1.10;0.90;;;18.00;49.60;;;;;;6296417;28;20052;-69
2023/03/09 03:28:28;;;;;;;1.27;1.05;;;18.00;49.60;;;;;;6296245;28;20025;-69
2023/03/09 03:31:28;;;;;;;1.10;1.00;;;18.00;49.60;;;;;;6278058;28;20039;-69
2023/03/09 03:34:29;;;;;;;1.10;0.93;;;18.00;49.60;;;;;;6296215;28;20473;-69
2023/03/09 03:37:30;;;;;;;1.23;0.90;;;18.00;49.60;;;;;;6295754;28;20024;-68
2023/03/09 03:40:31;;;;;;;0.80;0.80;;;18.00;49.50;;;;;;6295507;28;20024;-69
2023/03/09 03:43:32;;;;;;;1.25;0.80;;;18.00;49.50;;;;;;6293650;28;20028;-70
2023/03/09 03:46:32;;;;;;;1.05;0.90;;;18.00;49.60;;;;;;6295231;28;20063;-70
2023/03/09 03:49:33;;;;;;;1.10;0.93;;;18.00;49.60;;;;;;6294903;28;20448;-72
2023/03/09 03:52:34;;;;;;;0.95;0.85;;;18.00;49.50;;;;;;6294356;28;20032;-71
2023/03/09 03:55:35;;;;;;;1.55;1.00;;;18.00;49.50;;;;;;6294680;28;20017;-72
2023/03/09 03:58:35;;;;;;;1.05;0.88;;;18.00;49.50;;;;;;6276418;28;20544;-71
2023/03/09 04:01:36;;;;;;;0.90;0.80;;;18.00;49.50;;;;;;6294083;28;20020;-71
2023/03/09 04:04:37;;;;;;;1.55;1.20;;;18.00;49.50;;;;;;6294388;28;20063;-71
2023/03/09 04:07:37;;;;;;;1.10;0.98;;;18.00;49.50;;;;;;6294106;28;20690;-71
2023/03/09 04:10:39;;;;;;;1.35;0.90;;;18.00;49.50;;;;;;6293414;28;20393;-71
2023/03/09 04:13:40;;;;;;;1.27;1.00;;;18.00;49.50;;;;;;6293760;28;20107;-71
2023/03/09 04:16:40;;;;;;;0.98;0.82;;;18.00;49.50;;;;;;6294012;28;20562;-72
2023/03/09 04:19:41;;;;;;;1.42;1.10;;;18.00;49.50;;;;;;6275755;28;20032;-71
2023/03/09 04:22:42;;;;;;;1.08;0.80;;;18.00;49.50;;;;;;6289490;28;20076;-71
2023/03/09 04:25:42;;;;;;;1.17;0.82;;;18.00;49.50;;;;;;6293366;28;20032;-72
2023/03/09 04:28:43;;;;;;;1.13;1.00;;;18.00;49.50;;;;;;6294039;28;20085;-71
2023/03/09 04:31:44;;;;;;;1.00;0.90;;;17.90;49.40;;;;;;6293829;28;20466;-71
2023/03/09 04:34:44;;;;;;;1.33;0.80;;;18.00;49.50;;;;;;6293901;28;20020;-72
2023/03/09 04:37:45;;;;;;;1.80;1.10;;;18.00;49.40;;;;;;6293795;28;20032;-71
2023/03/09 04:40:46;;;;;;;1.50;0.93;;;17.90;49.40;;;;;;6275821;28;20025;-71
2023/03/09 04:43:46;;;;;;;1.50;0.90;;;17.90;49.40;;;;;;6275543;28;20031;-71
2023/03/09 04:46:47;;;;;;;1.40;1.15;;;17.90;49.40;;;;;;6293596;28;20520;-71
2023/03/09 04:49:48;;;;;;;1.42;1.00;;;18.00;49.50;;;;;;6293627;28;20504;-71
2023/03/09 04:52:49;;;;;;;1.38;0.90;;;17.90;49.40;;;;;;6293641;28;20458;-71
2023/03/09 04:55:50;;;;;;;1.27;0.88;;;17.90;49.30;;;;;;6275125;28;20116;-72
2023/03/09 04:58:51;;;;;;;1.35;1.08;;;17.90;49.30;;;;;;6293177;28;20031;-71
2023/03/09 05:01:52;;;;;;;0.93;0.90;;;17.90;49.30;;;;;;6292840;28;20021;-72
2023/03/09 05:04:52;;;;;;;1.98;1.15;;;17.90;49.40;;;;;;6293366;28;20363;-72
2023/03/09 05:07:53;;;;;;;1.10;1.00;;;17.90;49.30;;;;;;6293103;28;20055;-71
2023/03/09 05:10:54;;;;;;;1.50;1.10;;;17.90;49.30;;;;;;6275134;28;20735;-72
2023/03/09 05:13:55;;;;;;;1.02;0.93;;;17.90;49.30;;;;;;6274856;28;20028;-71
2023/03/09 05:16:55;;;;;;;2.15;1.17;;;17.90;49.20;;;;;;6293408;28;20477;-71
2023/03/09 05:19:56;;;;;;;1.95;1.10;;;17.90;49.20;;;;;;6268491;28;20524;-71
2023/03/09 05:22:57;;;;;;;1.80;1.20;;;17.90;49.20;;;;;;6292198;28;20120;-72
2023/03/09 05:25:59;;;;;;;1.35;1.10;;;17.90;49.20;;;;;;6274797;28;20043;-71
2023/03/09 05:29:00;;;;;;;2.03;1.20;;;17.90;49.20;;;;;;6274765;28;20016;-71
2023/03/09 05:32:02;;;;;;;1.23;1.10;;;17.90;49.20;;;;;;6280639;28;20036;-71
2023/03/09 05:35:03;;;;;;;5.22;1.33;;;17.90;49.20;;;;;;6288770;28;20036;-73
2023/03/09 05:38:03;;;;;;;1.77;1.30;;;17.90;49.20;;;;;;6313404;28;20754;-71
2023/03/09 05:41:05;;;;;;;5.57;1.05;;;17.90;49.20;;;;;;6297085;28;20028;-71
2023/03/09 05:44:06;;;;;;;2.58;1.40;;;17.90;49.20;;;;;;6297197;28;20374;-71
2023/03/09 05:47:07;;;;;;;4.90;1.13;;;17.90;49.20;;;;;;6295620;28;20032;-71
2023/03/09 05:50:09;;;;;;;1.58;1.13;;;17.90;49.20;;;;;;6322526;28;20092;-71
2023/03/09 05:53:10;;;;;;;1.52;1.17;;;17.90;49.20;;;;;;6302392;28;20061;-71
2023/03/09 05:56:12;;;;;;;1.67;1.00;;;17.90;49.20;;;;;;6296847;28;20028;-70
2023/03/09 05:59:12;;;;;;;2.25;1.00;;;18.00;49.40;;;;;;6313761;28;20549;-70
2023/03/09 06:02:13;;;;;;;5.93;1.35;;;18.00;49.40;;;;;;6281062;28;20029;-70
2023/03/09 06:05:14;;;;;;;1.70;1.15;;;18.00;49.40;;;;;;6297240;28;20024;-70
2023/03/09 06:08:14;;;;;;;2.75;1.30;;;18.00;49.40;;;;;;6311530;28;20025;-70
2023/03/09 06:11:15;;;;;;;2.13;1.15;;;18.00;49.40;;;;;;6296277;28;20101;-70
2023/03/09 06:14:16;;;;;;;2.35;1.48;;;18.00;49.50;;;;;;6289564;28;20024;-70
2023/03/09 06:17:17;;;;;;;3.15;1.20;;;18.00;49.50;;;;;;6295977;28;20215;-70
2023/03/09 06:20:19;;;;;;;2.25;1.48;;;18.00;49.60;;;;;;6296227;28;20035;-70
2023/03/09 06:23:20;;;;;;;1.65;1.27;;;18.00;49.60;;;;;;6303539;28;20052;-70
2023/03/09 06:26:21;;;;;;;6.05;1.40;;;18.00;49.60;;;;;;6310306;28;20056;-70
2023/03/09 06:29:22;;;;;;;1.80;1.10;;;18.00;49.60;;;;;;6309120;28;20425;-70
2023/03/09 06:32:22;;;;;;;2.80;1.60;;;18.00;49.70;;;;;;6321379;28;20024;-70
2023/03/09 06:35:24;;;;;;;1.95;1.38;;;18.00;49.60;;;;;;6301042;28;20739;-70
2023/03/09 06:38:25;;;;;;;2.55;1.30;;;18.00;49.70;;;;;;6298206;28;20082;-70
2023/03/09 06:41:31;;;;;;;2.83;1.60;;;18.00;49.70;;;;;;6294953;28;20024;-70
2023/03/09 06:44:33;;;;;;;4.63;1.23;;;18.00;49.70;;;;;;6278274;28;20032;-71
2023/03/09 06:47:33;;;;;;;3.95;1.42;;;18.00;49.70;;;;;;6312855;28;20081;-71
2023/03/09 06:50:34;;;;;;;1.27;1.10;;;18.00;49.70;;;;;;6299345;28;20064;-71
2023/03/09 06:53:35;;;;;;;1.95;1.33;;;18.00;49.70;;;;;;6295461;28;20103;-72
2023/03/09 06:56:36;;;;;;;2.70;1.30;;;18.00;49.80;;;;;;6294034;28;20028;-71
2023/03/09 06:59:36;;;;;;;1.15;1.02;;;18.00;49.80;;;;;;6297469;28;20024;-70
2023/03/09 07:02:38;;;;;;;2.08;1.35;;;18.00;49.80;;;;;;6298453;28;20086;-70
2023/03/09 07:05:39;;;;;;;2.17;1.20;;;18.00;49.80;;;;;;6297192;28;20022;-70
2023/03/09 07:08:39;;;;;;;2.92;1.20;;;18.00;49.80;;;;;;6299631;28;20511;-71
2023/03/09 07:11:41;;;;;;;1.45;1.05;;;18.00;49.80;;;;;;6322102;28;20020;-71
2023/03/09 07:14:41;;;;;;;3.05;1.67;;;18.00;49.80;;;;;;6293675;28;20032;-71
2023/03/09 07:17:42;;;;;;;2.05;1.13;;;18.00;49.80;;;;;;6297237;28;20024;-70
2023/03/09 07:20:43;;;;;;;1.45;1.10;;;18.00;49.80;;;;;;6314546;28;20024;-71
2023/03/09 07:23:45;;;;;;;1.67;1.23;;;18.00;49.80;;;;;;6319779;28;20098;-71
2023/03/09 07:26:48;;;;;;;1.60;1.17;;;18.00;49.80;;;;;;6279009;28;20078;-71
2023/03/09 07:29:49;;;;;;;1.90;1.35;;;18.00;50.50;;;;;;6299122;28;20035;-71
2023/03/09 07:32:50;;;;;;;1.33;0.93;;;18.00;49.80;;;;;;6296583;28;20024;-70
2023/03/09 07:35:50;;;;;;;2.78;1.58;;;18.00;49.80;;;;;;6297210;28;20036;-71
2023/03/09 07:38:51;;;;;;;2.22;1.38;;;18.00;49.80;;;;;;6278069;28;20500;-70
2023/03/09 07:41:52;;;;;;;2.10;1.15;;;18.00;49.80;;;;;;6300918;28;20054;-70
2023/03/09 07:44:53;;;;;;;1.13;1.00;;;18.00;49.80;;;;;;6284743;28;20492;-70
2023/03/09 07:47:54;;;;;;;3.55;1.40;;;18.00;49.80;;;;;;6295458;28;20023;-71
2023/03/09 07:50:59;;;;;;;1.52;1.20;;;18.00;49.90;;;;;;6284915;28;20733;-70
2023/03/09 07:53:59;;;;;;;;;;;18.00;49.90;;;;;;6296633;28;20066;-71
2023/03/09 07:57:01;;;;;;;2.75;1.17;;;18.00;49.90;;;;;;6304924;28;19908;-70
2023/03/09 08:00:05;;;;;;;2.92;1.40;;;18.00;49.80;;;;;;6320391;28;20028;-70
2023/03/09 08:03:06;;;;;;;9.93;1.40;;;18.00;49.80;;;;;;6320907;28;20039;-69
2023/03/09 08:06:09;;;;;;;2.28;1.38;;;18.00;49.80;;;;;;6305502;28;20393;-69
2023/03/09 08:09:15;;;;;;;4.72;1.60;;;18.00;49.80;;;;;;6294098;28;20085;-70
2023/03/09 08:12:15;;;;;;;3.45;1.42;;;18.00;49.60;;;;;;6294489;28;20788;-70
2023/03/09 08:15:18;;;;;;;4.15;1.33;;;18.00;49.70;;;;;;6301990;28;20038;-71
2023/03/09 08:18:20;;;;;;;2.70;1.30;;;18.00;49.70;;;;;;6295518;28;20032;-71
2023/03/09 08:21:20;;;;;;;2.35;1.38;;;18.00;49.70;;;;;;6306213;28;20492;-71
2023/03/09 08:24:21;;;;;;;2.22;1.38;;;18.00;49.70;;;;;;6297692;28;20052;-71
2023/03/09 08:27:22;;;;;;;3.63;1.50;;;18.00;49.70;;;;;;6299609;28;20047;-70
2023/03/09 08:30:23;;;;;;;2.85;1.30;;;18.00;49.70;;;;;;6311379;28;20103;-70
2023/03/09 08:33:24;;;;;;;3.80;1.20;;;18.00;49.80;;;;;;6318896;28;20518;-70
2023/03/09 08:36:25;;;;;;;3.42;1.85;;;18.00;49.80;;;;;;6277614;28;20031;-71
2023/03/09 08:39:26;;;;;;;2.53;1.45;;;18.00;49.80;;;;;;6294719;28;20017;-70
2023/03/09 08:42:27;;;;;;;3.55;1.20;;;18.00;49.80;;;;;;6311025;28;20586;-71
2023/03/09 08:45:30;;;;;;;1.45;1.15;;;18.00;49.80;;;;;;6301990;28;20117;-74
2023/03/09 08:48:31;;;;;;;5.38;1.30;;;18.00;49.80;;;;;;6301668;28;20052;-70
2023/03/09 08:51:32;;;;;;;3.53;1.48;;;18.00;49.80;;;;;;6295271;28;20489;-70
2023/03/09 08:54:33;;;;;;;2.88;1.42;;;18.00;49.50;;;;;;6319645;28;20027;-70
2023/03/09 08:57:34;;;;;;;4.22;1.58;;;18.00;49.60;;;;;;6319524;28;20023;-70
2023/03/09 09:00:35;;;;;;;2.28;1.50;;;18.00;49.70;;;;;;6317672;28;20069;-69
2023/03/09 09:03:38;;;;;;;2.35;1.63;;;18.00;49.80;;;;;;6295727;28;20090;-69
2023/03/09 09:06:39;;;;;;;2.28;1.30;;;18.00;49.80;;;;;;6276102;28;20020;-69
2023/03/09 09:09:40;;;;;;;4.60;1.67;;;18.00;49.80;;;;;;6290068;28;20071;-70
2023/03/09 09:12:41;;;;;;;6.20;2.80;;;18.00;50.50;;;;;;6266117;28;20029;-69
2023/03/09 09:15:43;;;;;;;6.22;2.85;;;18.00;48.70;;;;;;6276645;28;20028;-70
2023/03/09 09:18:43;;;;;;;3.63;2.28;;;18.00;48.20;;;;;;6294530;28;20063;-71
2023/03/09 09:21:44;;;;;;;3.20;1.77;;;18.00;48.60;;;;;;6298492;28;20020;-70
2023/03/09 09:24:46;;;;;;;2.58;1.77;;;18.00;48.90;;;;;;6319673;28;20044;-70
2023/03/09 09:27:51;;;;;;;8.93;2.22;;;18.00;49.10;;;;;;6301030;28;20161;-69
2023/03/09 09:30:56;;;;;;;4.95;2.17;;;18.00;49.00;;;;;;6319738;28;20016;-69
2023/03/09 09:33:57;;;;;;;7.88;2.40;;;18.00;49.80;;;;;;6294083;28;20025;-69
2023/03/09 09:37:00;;;;;;;4.25;2.10;;;18.00;49.20;;;;;;6309281;28;20039;-70
2023/03/09 09:40:02;;;;;;;3.20;1.77;;;18.00;49.20;;;;;;6319584;28;20036;-70
2023/03/09 09:43:03;;;;;;;4.50;1.48;;;18.00;49.30;;;;;;6319347;28;20362;-70
2023/03/09 09:46:07;;;;;;;7.03;1.92;;;18.00;49.30;;;;;;6301126;28;20028;-69
2023/03/09 09:49:21;;;;;;;2.40;1.70;;;18.00;49.40;;;;;;6301569;28;20028;-69
2023/03/09 09:52:28;;;;;;;9.63;2.72;;;18.00;49.40;;;;;;6299479;28;20024;-69
2023/03/09 09:55:34;;;;;;;6.63;2.30;;;18.00;49.10;;;;;;6296165;28;20025;-70
2023/03/09 09:58:49;;;;;;;5.13;1.73;;;18.00;49.10;;;;;;6297349;28;20028;-69
2023/03/09 10:02:05;;;;;;;3.20;1.98;;;18.00;49.20;;;;;;6320016;28;20157;-71
2023/03/09 10:05:16;;;;;;;4.28;1.85;;;18.00;49.30;;;;;;6270764;28;20029;-70
2023/03/09 10:08:32;;;;;;;3.03;1.77;;;18.00;49.30;;;;;;6279970;28;20017;-69
2023/03/09 10:11:49;;;;;;;5.47;2.15;;;18.00;49.40;;;;;;6275393;28;20029;-69
2023/03/09 10:15:04;;;;;;;3.70;2.13;;;18.00;49.30;;;;;;6292139;28;20029;-69
2023/03/09 10:18:16;;;;;;;6.28;1.52;;;18.00;49.40;;;;;;6294794;28;20108;-70
2023/03/09 10:21:26;;;;;;;6.22;2.10;;;18.00;49.40;;;;;;6306494;28;20020;-70
2023/03/09 10:24:28;;;;;;;3.28;1.80;;;18.00;49.40;;;;;;6323882;28;20056;-69
2023/03/09 10:28:06;;;;;;;4.43;2.30;;;18.00;49.50;;;;;;6324751;28;20020;-70
2023/03/09 10:31:35;;;;;;;4.07;1.80;;;18.10;49.50;;;;;;6261425;28;20085;-70
2023/03/09 10:34:59;;;;;;;3.28;1.98;;;18.00;49.50;;;;;;6283496;28;20027;-69
2023/03/09 10:38:00;;;;;;;2.63;1.90;;;18.00;49.50;;;;;;6322207;28;20400;-69
2023/03/09 10:41:01;;;;;;;2.25;1.75;;;18.00;49.50;;;;;;6298914;28;20028;-70
2023/03/09 10:44:02;;;;;;;3.22;2.00;;;18.00;49.60;;;;;;6290621;28;20455;-69
2023/03/09 10:47:03;;;;;;;3.35;1.95;;;18.10;49.60;;;;;;6277797;28;20041;-70
2023/03/09 10:50:12;;;;;;;4.43;1.95;;;18.00;49.60;;;;;;6290440;28;20028;-69
2023/03/09 10:53:41;;;;;;;3.50;1.88;;;18.10;49.70;;;;;;6322533;28;20096;-69
2023/03/09 10:56:45;;;;;;;2.75;1.95;;;18.10;49.70;;;;;;6278878;28;20031;-70
2023/03/09 11:00:01;;;;;;;3.85;1.95;;;18.10;49.70;;;;;;6311894;28;20480;-70
2023/03/09 11:03:02;;;;;;;2.78;1.85;;;18.10;49.80;;;;;;6305194;28;20438;-70
2023/03/09 11:06:27;;;;;;;4.85;1.90;;;18.10;49.80;;;;;;6304622;28;20052;-72
2023/03/09 11:09:34;;;;;;;3.90;1.73;;;18.10;49.90;;;;;;6286665;28;20021;-71
2023/03/09 11:12:39;;;;;;;3.55;2.08;;;18.10;49.90;;;;;;6271849;28;20029;-72
2023/03/09 11:15:40;;;;;;;2.75;1.80;;;18.10;49.90;;;;;;6310417;28;20020;-71
2023/03/09 11:18:42;;;;;;;2.88;1.60;;;18.10;49.90;;;;;;6321565;28;20024;-72
2023/03/09 11:22:01;;;;;;;3.47;2.00;;;18.10;49.90;;;;;;6321543;28;20055;-70
2023/03/09 11:25:02;;;;;;;5.78;2.30;;;18.10;49.90;;;;;;6305506;28;20389;-70
2023/03/09 11:28:15;;;;;;;5.60;2.20;;;18.10;49.80;;;;;;6303226;28;20020;-70
2023/03/09 11:31:19;;;;;;;4.85;2.10;;;18.10;49.70;;;;;;6280679;28;20017;-70
2023/03/09 11:34:42;;;;;;;7.45;1.83;;;18.10;49.90;;;;;;6290081;28;20486;-70
2023/03/09 11:37:50;;;;;;;2.63;1.90;;;18.10;49.90;;;;;;6291588;28;20039;-70
2023/03/09 11:41:05;;;;;;;3.95;1.98;;;18.10;49.90;;;;;;6285272;28;20024;-71
2023/03/09 11:44:15;;;;;;;4.05;2.00;;;18.10;49.90;;;;;;6270034;28;20068;-70
2023/03/09 11:47:30;;;;;;;8.77;2.35;;;18.10;49.90;;;;;;6296225;28;20836;-71
2023/03/09 11:51:03;;;;;;;2.03;1.40;;;18.10;50.00;;;;;;6307600;28;20046;-71
2023/03/09 11:54:45;;;;;;;4.75;2.22;;;18.10;49.90;;;;;;6312995;28;20063;-70
2023/03/09 11:57:52;;;;;;;3.00;2.10;;;18.10;50.00;;;;;;6219134;28;20057;-70
2023/03/09 12:01:05;;;;;;;4.38;2.40;;;18.10;49.90;;;;;;6266076;28;20078;-70
2023/03/09 12:04:07;;;;;;;4.05;2.33;;;18.10;50.00;;;;;;6320198;28;20028;-70
2023/03/09 12:07:16;;;;;;;3.15;2.15;;;18.10;50.10;;;;;;6300946;28;20497;-70
2023/03/09 12:10:39;;;;;;;4.47;2.10;;;18.10;50.10;;;;;;6306556;28;20017;-70
2023/03/09 12:13:50;;;;;;;4.65;1.73;;;18.10;50.10;;;;;;6277244;28;20079;-71
2023/03/09 12:16:55;;;;;;;3.38;1.92;;;18.10;50.00;;;;;;6314913;28;20103;-70
2023/03/09 12:19:56;;;;;;;2.90;1.95;;;18.10;50.10;;;;;;6297365;28;20039;-70
2023/03/09 12:22:57;;;;;;;3.33;2.03;;;18.10;50.10;;;;;;6293452;28;20040;-71
2023/03/09 12:25:58;;;;;;;3.95;2.10;;;18.10;50.10;;;;;;6283111;28;20115;-71
2023/03/09 12:29:14;;;;;;;3.85;1.83;;;18.10;50.10;;;;;;6319142;28;20027;-71
2023/03/09 12:32:18;;;;;;;2.97;1.98;;;18.20;50.20;;;;;;6309147;28;20051;-70
2023/03/09 12:35:22;;;;;;;2.95;1.88;;;18.20;50.90;;;;;;6303878;28;20426;-71
2023/03/09 12:38:26;;;;;;;2.40;1.77;;;18.20;50.20;;;;;;6299892;28;20020;-71
2023/03/09 12:41:27;;;;;;;3.15;1.77;;;18.20;50.20;;;;;;6317030;28;20085;-70
2023/03/09 12:44:43;;;;;;;3.08;2.05;;;18.20;50.20;;;;;;6299449;28;20066;-70
2023/03/09 12:48:11;;;;;;;3.85;2.22;;;18.20;50.30;;;;;;6280276;28;20477;-70
2023/03/09 12:51:27;;;;;;;2.33;1.80;;;18.20;50.30;;;;;;6289817;28;20009;-70
2023/03/09 12:54:29;;;;;;;2.28;1.55;;;18.20;50.30;;;;;;6281937;28;20024;-70
2023/03/09 12:57:31;;;;;;;2.47;1.77;;;18.20;50.30;;;;;;6296039;28;20028;-70
2023/03/09 13:00:36;;;;;;;3.17;1.88;;;18.20;50.30;;;;;;6278731;28;20059;-70
2023/03/09 13:04:09;;;;;;;2.78;1.83;;;18.20;50.30;;;;;;6268675;28;20474;-71
2023/03/09 13:07:17;;;;;;;3.75;2.00;;;18.20;50.40;;;;;;6288065;28;20016;-70
2023/03/09 13:10:23;;;;;;;3.67;1.90;;;18.20;50.40;;;;;;6274258;28;20075;-70
2023/03/09 13:13:41;;;;;;;4.45;1.70;;;18.20;50.40;;;;;;6288174;28;20165;-70
2023/03/09 13:16:46;;;;;;;3.83;1.98;;;18.20;50.40;;;;;;6294357;28;20030;-71
2023/03/09 13:19:52;;;;;;;3.80;2.08;;;18.20;50.40;;;;;;6318156;28;20741;-70
2023/03/09 13:22:54;;;;;;;4.30;2.25;;;18.20;50.40;;;;;;6284449;28;20032;-71
2023/03/09 13:25:56;;;;;;;2.70;1.98;;;18.20;50.40;;;;;;6292025;28;20088;-70
2023/03/09 13:28:57;;;;;;;5.43;2.67;;;18.20;50.30;;;;;;6292758;28;20020;-70
2023/03/09 13:31:59;;;;;;;4.20;2.58;;;18.20;50.40;;;;;;6294505;28;20073;-70
2023/03/09 13:35:13;;;;;;;5.07;2.95;;;18.20;50.30;;;;;;6298171;28;20482;-71
2023/03/09 13:38:28;;;;;;;6.00;2.50;;;18.10;50.00;;;;;;6292813;28;20020;-70
2023/03/09 13:41:28;;;;;;;5.88;3.50;;;18.10;49.90;;;;;;6299375;28;20258;-71
2023/03/09 13:44:30;;;;;;;3.63;2.25;;;18.10;49.70;;;;;;6312561;28;20031;-71
2023/03/09 13:47:34;;;;;;;5.60;3.15;;;18.10;49.60;;;;;;6317024;28;20021;-71
2023/03/09 13:50:36;;;;;;;8.10;3.92;;;18.10;49.60;;;;;;6316700;28;20077;-71
2023/03/09 13:53:36;;;;;;;6.22;3.80;;;18.10;49.30;;;;;;6301491;28;20036;-71
2023/03/09 13:56:37;;;;;;;6.93;3.85;;;18.10;49.30;;;;;;6277968;28;20025;-70
2023/03/09 13:59:56;;;;;;;4.45;3.13;;;18.10;49.20;;;;;;6305946;28;20037;-69
2023/03/09 14:02:57;;;;;;;6.55;3.38;;;18.10;49.10;;;;;;6287735;28;20024;-69
2023/03/09 14:06:04;;;;;;;6.53;4.13;;;18.10;49.00;;;;;;6321555;28;20494;-71
2023/03/09 14:09:31;;;;;;;8.20;4.10;;;18.10;48.90;;;;;;6303120;28;20385;-70
2023/03/09 14:12:38;;;;;;;5.65;3.72;;;18.10;48.80;;;;;;6279359;28;20055;-71
2023/03/09 14:15:39;;;;;;;8.32;4.18;;;18.10;48.70;;;;;;6321609;28;20028;-68
2023/03/09 14:18:42;;;;;;;5.82;3.03;;;18.20;49.20;;;;;;6321289;28;20024;-68
2023/03/09 14:21:50;;;;;;;4.80;3.20;;;18.20;49.30;;;;;;6302449;28;20048;-68
2023/03/09 14:24:51;;;;;;;6.05;3.30;;;18.20;49.50;;;;;;6281799;28;20506;-69
2023/03/09 14:27:52;;;;;;;5.38;3.35;;;18.20;49.60;;;;;;6276115;28;20097;-69
2023/03/09 14:30:53;;;;;;;5.30;3.40;;;18.20;49.60;;;;;;6320244;28;20031;-69
2023/03/09 14:33:57;;;;;;;4.82;3.00;;;18.20;49.70;;;;;;6309828;28;20035;-69
2023/03/09 14:36:59;;;;;;;5.38;3.17;;;18.20;49.70;;;;;;6310871;28;20514;-68
2023/03/09 14:40:12;;;;;;;8.43;3.20;;;18.20;49.80;;;;;;6295328;28;20043;-69
2023/03/09 14:43:25;;;;;;;5.00;2.80;;;18.20;49.80;;;;;;6284975;28;20044;-69
2023/03/09 14:46:28;;;;;;;4.25;2.78;;;18.20;49.90;;;;;;6318909;28;20055;-69
2023/03/09 14:49:28;;;;;;;3.67;2.60;;;18.20;49.90;;;;;;6319511;28;20059;-68
2023/03/09 14:52:30;;;;;;;4.88;2.95;;;18.20;50.00;;;;;;6319495;28;20046;-68
2023/03/09 14:55:32;;;;;;;5.70;3.28;;;18.20;50.00;;;;;;6320042;28;20710;-68
2023/03/09 14:58:32;;;;;;;5.88;2.88;;;18.20;50.00;;;;;;6315104;28;20118;-69
2023/03/09 15:01:33;;;;;;;4.38;2.50;;;18.20;50.00;;;;;;6310218;28;20024;-68
2023/03/09 15:04:35;;;;;;;4.97;2.85;;;18.20;50.00;;;;;;6294578;28;20120;-69
2023/03/09 15:07:36;;;;;;;3.72;2.63;;;18.20;50.10;;;;;;6293879;28;20078;-68
2023/03/09 15:10:37;;;;;;;12.57;2.75;;;18.20;50.10;;;;;;6282995;28;20032;-69
2023/03/09 15:13:38;;;;;;;4.10;2.60;;;18.20;50.10;;;;;;6275067;28;20024;-69
2023/03/09 15:16:39;;;;;;;4.63;3.10;;;18.20;50.10;;;;;;6319865;28;20175;-70
2023/03/09 15:19:40;;;;;;;4.50;2.78;;;18.20;50.10;;;;;;6309287;28;20501;-68
2023/03/09 15:22:40;;;;;;;4.03;2.60;;;18.20;50.20;;;;;;6293646;28;20044;-69
2023/03/09 15:25:42;;;;;;;4.60;2.60;;;18.20;50.20;;;;;;6294351;28;20093;-69
2023/03/09 15:28:43;;;;;;;3.45;2.53;;;18.20;50.20;;;;;;6294521;28;20021;-69
2023/03/09 15:31:43;;;;;;;3.92;2.70;;;18.20;50.20;;;;;;6267190;28;20506;-69
2023/03/09 15:34:44;;;;;;;5.20;2.92;;;18.20;50.20;;;;;;6280879;28;20064;-69
2023/03/09 15:37:45;;;;;;;4.57;2.65;;;18.20;50.90;;;;;;6275632;28;20039;-69
2023/03/09 15:40:46;;;;;;;3.83;2.33;;;18.20;50.20;;;;;;6293082;28;20028;-69
2023/03/09 15:43:47;;;;;;;4.85;2.63;;;18.20;50.20;;;;;;6293131;28;20394;-68
2023/03/09 15:46:47;;;;;;;4.05;2.20;;;18.20;50.20;;;;;;6275764;28;20023;-69
2023/03/09 15:49:48;;;;;;;3.35;2.47;;;18.20;50.20;;;;;;6275222;28;20120;-69
2023/03/09 15:52:50;;;;;;;4.80;3.10;;;18.20;50.30;;;;;;6292993;28;20067;-68
2023/03/09 15:56:00;;;;;;;4.80;3.03;;;18.20;50.30;;;;;;6306198;28;20026;-68
2023/03/09 15:59:01;;;;;;;5.68;2.90;;;18.20;50.30;;;;;;6317860;28;20031;-68